createdAt,value
2023-01-29T00:02:24.187Z,15.85
2023-01-29T00:04:52.232Z,16.12
2023-01-29T00:07:24.979Z,16.06
2023-01-29T00:09:53.404Z,15.55
2023-01-29T00:12:21.213Z,15.87
2023-01-29T00:14:51.978Z,15.71
2023-01-29T00:17:19.855Z,15.51
2023-01-29T00:19:47.657Z,15.88
2023-01-29T00:22:15.464Z,15.79
2023-01-29T00:24:44.543Z,15.93
2023-01-29T00:27:12.357Z,16.13
2023-01-29T00:29:40.109Z,16.16
2023-01-29T00:32:08.020Z,16.00
2023-01-29T00:34:38.091Z,16.15
2023-01-29T00:37:09.083Z,16.10
2023-01-29T00:39:47.904Z,15.98
2023-01-29T00:42:34.879Z,16.12
2023-01-29T00:45:02.673Z,15.81
2023-01-29T00:47:36.720Z,15.84
2023-01-29T00:50:10.913Z,15.15
2023-01-29T00:52:43.691Z,15.83
2023-01-29T00:55:12.291Z,15.98
2023-01-29T00:57:40.457Z,15.88
2023-01-29T01:00:11.830Z,15.98
2023-01-29T01:02:58.046Z,15.22
2023-01-29T01:05:27.966Z,15.58
2023-01-29T01:07:58.384Z,15.94
2023-01-29T01:10:32.176Z,15.92
2023-01-29T01:13:06.040Z,15.95
2023-01-29T01:15:39.671Z,15.94
2023-01-29T01:18:07.729Z,15.94
2023-01-29T01:20:36.649Z,15.94
2023-01-29T01:23:05.258Z,15.15
2023-01-29T01:25:33.286Z,15.33
2023-01-29T01:28:01.590Z,15.92
2023-01-29T01:30:29.397Z,15.83
2023-01-29T01:32:57.526Z,15.38
2023-01-29T01:35:25.352Z,15.90
2023-01-29T01:37:53.183Z,15.83
2023-01-29T01:40:23.053Z,15.72
2023-01-29T01:42:54.125Z,15.51
2023-01-29T01:45:34.398Z,15.55
2023-01-29T01:48:14.415Z,15.82
2023-01-29T01:50:49.581Z,15.22
2023-01-29T01:53:27.413Z,15.78
2023-01-29T01:56:09.532Z,15.49
2023-01-29T01:58:59.225Z,15.81
2023-01-29T02:01:30.800Z,15.81
2023-01-29T02:04:24.458Z,15.69
2023-01-29T02:07:12.895Z,15.77
2023-01-29T02:09:59.350Z,15.62
2023-01-29T02:12:31.518Z,15.55
2023-01-29T02:15:00.635Z,15.72
2023-01-29T02:17:28.824Z,15.46
2023-01-29T02:20:24.507Z,15.70
2023-01-29T02:22:59.465Z,15.62
2023-01-29T02:25:45.975Z,15.56
2023-01-29T02:28:21.870Z,15.11
2023-01-29T02:30:58.898Z,15.52
2023-01-29T02:33:46.948Z,15.60
2023-01-29T02:36:37.083Z,15.61
2023-01-29T02:39:17.159Z,15.59
2023-01-29T02:41:56.845Z,15.37
2023-01-29T02:44:38.439Z,15.58
2023-01-29T02:47:17.328Z,15.14
2023-01-29T02:49:50.562Z,15.48
2023-01-29T02:52:20.181Z,15.45
2023-01-29T02:54:59.977Z,15.13
2023-01-29T02:57:33.169Z,15.08
2023-01-29T03:00:05.038Z,15.43
2023-01-29T03:02:39.297Z,15.44
2023-01-29T03:05:13.029Z,14.70
2023-01-29T03:07:46.715Z,15.14
2023-01-29T03:10:32.040Z,14.85
2023-01-29T03:13:10.037Z,15.16
2023-01-29T03:15:47.524Z,15.23
2023-01-29T03:18:30.659Z,15.36
2023-01-29T03:21:27.780Z,14.96
2023-01-29T03:24:16.833Z,15.38
2023-01-29T03:27:03.790Z,15.36
2023-01-29T03:29:57.141Z,14.90
2023-01-29T03:32:31.257Z,15.04
2023-01-29T03:35:04.199Z,14.47
2023-01-29T03:37:42.052Z,15.26
2023-01-29T03:40:10.682Z,15.23
2023-01-29T03:42:59.775Z,15.25
2023-01-29T03:45:43.028Z,15.23
2023-01-29T03:48:25.782Z,15.24
2023-01-29T03:51:17.419Z,15.25
2023-01-29T03:53:56.019Z,14.97
2023-01-29T03:56:48.237Z,15.30
2023-01-29T03:59:20.299Z,15.30
2023-01-29T04:02:28.268Z,15.16
2023-01-29T04:05:03.468Z,14.94
2023-01-29T04:07:34.981Z,15.30
2023-01-29T04:10:11.316Z,14.94
2023-01-29T04:12:49.736Z,15.31
2023-01-29T04:15:19.141Z,15.44
2023-01-29T04:17:54.528Z,15.47
2023-01-29T04:20:36.189Z,15.43
2023-01-29T04:23:07.449Z,14.74
2023-01-29T04:25:47.735Z,15.31
2023-01-29T04:28:28.643Z,14.65
2023-01-29T04:31:08.851Z,15.48
2023-01-29T04:34:05.097Z,14.95
2023-01-29T04:36:51.057Z,15.58
2023-01-29T04:39:27.027Z,15.59
2023-01-29T04:41:57.660Z,15.35
2023-01-29T04:44:45.373Z,15.57
2023-01-29T04:47:34.912Z,15.59
2023-01-29T04:50:15.467Z,15.59
2023-01-29T04:53:04.897Z,15.62
2023-01-29T04:55:40.597Z,15.38
2023-01-29T04:58:41.747Z,15.53
2023-01-29T05:01:15.155Z,15.62
2023-01-29T05:03:48.030Z,15.53
2023-01-29T05:06:18.406Z,15.69
2023-01-29T05:08:49.455Z,15.69
2023-01-29T05:11:18.821Z,15.28
2023-01-29T05:13:49.379Z,15.59
2023-01-29T05:16:24.003Z,15.59
2023-01-29T05:18:52.291Z,15.59
2023-01-29T05:21:23.547Z,15.48
2023-01-29T05:24:12.529Z,15.57
2023-01-29T05:27:00.986Z,15.57
2023-01-29T05:29:28.895Z,15.29
2023-01-29T05:31:57.061Z,15.63
2023-01-29T05:34:25.389Z,14.85
2023-01-29T05:36:54.466Z,15.10
2023-01-29T05:39:22.206Z,15.34
2023-01-29T05:41:49.934Z,15.51
2023-01-29T05:44:17.799Z,15.04
2023-01-29T05:46:46.369Z,15.07
2023-01-29T05:49:14.144Z,15.26
2023-01-29T05:51:41.979Z,15.33
2023-01-29T05:54:14.629Z,15.68
2023-01-29T05:56:42.501Z,15.40
2023-01-29T05:59:10.734Z,14.85
2023-01-29T06:01:38.475Z,15.63
2023-01-29T06:04:06.354Z,14.75
2023-01-29T06:06:34.158Z,15.22
2023-01-29T06:09:01.788Z,14.99
2023-01-29T06:11:29.535Z,14.98
2023-01-29T06:13:58.078Z,15.30
2023-01-29T06:16:25.780Z,15.38
2023-01-29T06:18:53.529Z,15.41
2023-01-29T06:21:21.311Z,14.37
2023-01-29T06:23:49.144Z,15.40
2023-01-29T06:26:17.112Z,15.01
2023-01-29T06:28:46.307Z,15.49
2023-01-29T06:31:36.877Z,14.79
2023-01-29T06:34:01.758Z,15.16
2023-01-29T06:36:29.465Z,15.52
2023-01-29T06:38:59.540Z,15.56
2023-01-29T06:41:28.771Z,15.34
2023-01-29T06:43:56.549Z,15.34
2023-01-29T06:46:24.392Z,15.06
2023-01-29T06:48:52.362Z,15.36
2023-01-29T06:51:21.499Z,15.51
2023-01-29T06:53:49.515Z,15.08
2023-01-29T06:56:17.359Z,15.49
2023-01-29T06:58:45.182Z,15.19
2023-01-29T07:01:25.364Z,15.38
2023-01-29T07:04:01.436Z,15.17
2023-01-29T07:06:29.911Z,15.31
2023-01-29T07:08:57.707Z,15.52
2023-01-29T07:11:25.655Z,15.53
2023-01-29T07:13:53.696Z,14.80
2023-01-29T07:16:21.454Z,15.18
2023-01-29T07:18:49.517Z,15.61
2023-01-29T07:21:17.736Z,15.39
2023-01-29T07:23:45.588Z,15.35
2023-01-29T07:26:13.699Z,15.65
2023-01-29T07:28:42.810Z,15.41
2023-01-29T07:31:14.462Z,15.70
2023-01-29T07:33:45.859Z,15.71
2023-01-29T07:36:16.236Z,15.31
2023-01-29T07:38:44.168Z,15.60
2023-01-29T07:41:12.667Z,15.52
2023-01-29T07:43:40.621Z,15.16
2023-01-29T07:46:09.041Z,15.01
2023-01-29T07:48:37.043Z,15.29
2023-01-29T07:51:04.919Z,15.32
2023-01-29T07:53:32.909Z,14.60
2023-01-29T07:56:00.713Z,15.52
2023-01-29T07:58:28.483Z,15.28
2023-01-29T08:00:56.473Z,15.07
2023-01-29T08:03:24.134Z,15.18
2023-01-29T08:05:51.925Z,15.17
2023-01-29T08:08:19.810Z,15.65
2023-01-29T08:10:47.682Z,15.52
2023-01-29T08:13:15.748Z,15.38
2023-01-29T08:15:46.982Z,15.46
2023-01-29T08:18:15.619Z,15.59
2023-01-29T08:20:43.574Z,15.62
2023-01-29T08:23:16.606Z,15.51
2023-01-29T08:25:44.803Z,15.68
2023-01-29T08:28:13.012Z,15.13
2023-01-29T08:30:41.121Z,15.50
2023-01-29T08:33:09.047Z,15.68
2023-01-29T08:35:37.266Z,15.64
2023-01-29T08:38:07.857Z,15.55
2023-01-29T08:40:35.873Z,15.84
2023-01-29T08:43:10.856Z,15.89
2023-01-29T08:45:41.786Z,15.90
2023-01-29T08:48:10.457Z,15.70
2023-01-29T08:50:38.614Z,15.84
2023-01-29T08:53:08.201Z,15.48
2023-01-29T08:55:40.895Z,15.83
2023-01-29T08:58:11.819Z,15.86
2023-01-29T09:00:39.788Z,15.60
2023-01-29T09:03:08.152Z,15.35
2023-01-29T09:05:41.589Z,15.53
2023-01-29T09:08:10.325Z,15.83
2023-01-29T09:10:38.402Z,15.64
2023-01-29T09:13:06.269Z,15.69
2023-01-29T09:15:34.199Z,14.99
2023-01-29T09:18:05.853Z,15.95
2023-01-29T09:20:34.218Z,15.64
2023-01-29T09:23:07.723Z,16.09
2023-01-29T09:25:36.407Z,16.12
2023-01-29T09:28:06.608Z,15.36
2023-01-29T09:30:38.014Z,15.92
2023-01-29T09:33:07.167Z,15.64
2023-01-29T09:35:34.960Z,16.11
2023-01-29T09:38:02.595Z,16.03
2023-01-29T09:40:47.897Z,16.03
2023-01-29T09:43:23.879Z,16.16
2023-01-29T09:46:05.323Z,15.88
2023-01-29T09:48:36.745Z,16.17
2023-01-29T09:51:15.530Z,15.77
2023-01-29T09:53:55.071Z,16.09
2023-01-29T09:56:28.887Z,16.31
2023-01-29T09:59:01.687Z,16.09
2023-01-29T10:01:38.961Z,16.55
2023-01-29T10:04:27.481Z,16.57
2023-01-29T10:07:22.929Z,16.35
2023-01-29T10:10:20.050Z,16.70
2023-01-29T10:13:11.098Z,16.55
2023-01-29T10:15:53.555Z,16.64
2023-01-29T10:18:33.636Z,16.99
2023-01-29T10:21:28.605Z,17.08
2023-01-29T10:24:22.429Z,17.22
2023-01-29T10:26:52.774Z,17.22
2023-01-29T10:29:22.363Z,17.30
2023-01-29T10:31:55.511Z,17.15
2023-01-29T10:34:45.002Z,17.02
2023-01-29T10:37:43.166Z,16.85
2023-01-29T10:40:26.267Z,16.94
2023-01-29T10:43:06.354Z,16.82
2023-01-29T10:45:49.955Z,16.16
2023-01-29T10:48:35.987Z,16.74
2023-01-29T10:51:25.900Z,16.73
2023-01-29T10:54:15.415Z,16.68
2023-01-29T10:57:11.515Z,16.46
2023-01-29T10:59:42.550Z,16.53
2023-01-29T11:02:18.185Z,16.53
2023-01-29T11:04:48.542Z,16.31
2023-01-29T11:07:20.338Z,16.89
2023-01-29T11:10:03.479Z,17.04
2023-01-29T11:12:35.069Z,16.99
2023-01-29T11:15:24.806Z,17.14
2023-01-29T11:18:07.323Z,17.14
2023-01-29T11:20:36.427Z,16.96
2023-01-29T11:23:04.904Z,17.11
2023-01-29T11:25:34.048Z,16.97
2023-01-29T11:28:03.126Z,16.86
2023-01-29T11:30:34.319Z,17.06
2023-01-29T11:33:25.082Z,17.12
2023-01-29T11:35:57.904Z,16.61
2023-01-29T11:38:28.492Z,16.81
2023-01-29T11:41:08.421Z,17.03
2023-01-29T11:43:36.510Z,16.68
2023-01-29T11:46:14.293Z,16.95
2023-01-29T11:48:50.404Z,16.93
2023-01-29T11:51:29.572Z,16.78
2023-01-29T11:54:00.903Z,17.30
2023-01-29T11:56:40.242Z,17.34
2023-01-29T11:59:37.707Z,17.27
2023-01-29T12:02:24.335Z,17.12
2023-01-29T12:04:52.379Z,17.12
2023-01-29T12:07:20.430Z,16.96
2023-01-29T12:09:59.913Z,17.15
2023-01-29T12:12:29.993Z,17.20
2023-01-29T12:15:26.935Z,17.19
2023-01-29T12:18:22.779Z,17.14
2023-01-29T12:20:56.285Z,16.64
2023-01-29T12:24:02.954Z,17.07
2023-01-29T12:26:38.688Z,17.05
2023-01-29T12:29:25.371Z,17.08
2023-01-29T12:32:16.648Z,17.11
2023-01-29T12:34:53.272Z,16.87
2023-01-29T12:37:28.833Z,17.23
2023-01-29T12:39:56.895Z,17.28
2023-01-29T12:42:25.793Z,17.00
2023-01-29T12:45:03.424Z,17.24
2023-01-29T12:47:37.406Z,17.34
2023-01-29T12:50:18.525Z,17.32
2023-01-29T12:52:53.294Z,17.39
2023-01-29T12:55:28.087Z,17.43
2023-01-29T12:58:00.587Z,17.56
2023-01-29T13:00:47.959Z,17.52
2023-01-29T13:03:58.240Z,17.37
2023-01-29T13:07:13.533Z,14.72
2023-01-29T13:10:05.205Z,14.04
2023-01-29T13:12:56.714Z,13.73
2023-01-29T13:15:52.127Z,17.40
2023-01-29T13:18:51.392Z,17.33
2023-01-29T13:21:23.800Z,16.98
2023-01-29T13:23:57.641Z,17.32
2023-01-29T13:26:31.971Z,16.97
2023-01-29T13:29:00.240Z,16.74
2023-01-29T13:31:31.864Z,17.27
2023-01-29T13:34:10.337Z,17.26
2023-01-29T13:36:43.781Z,16.83
2023-01-29T13:39:24.092Z,17.28
2023-01-29T13:41:53.147Z,17.12
2023-01-29T13:44:33.803Z,17.27
2023-01-29T13:47:06.638Z,17.27
2023-01-29T13:49:37.789Z,17.28
2023-01-29T13:52:27.279Z,17.00
2023-01-29T13:55:01.313Z,17.21
2023-01-29T13:57:44.307Z,17.21
2023-01-29T14:00:21.381Z,17.26
2023-01-29T14:02:55.307Z,17.27
2023-01-29T14:05:29.786Z,17.30
2023-01-29T14:08:06.190Z,17.30
2023-01-29T14:10:36.270Z,17.04
2023-01-29T14:13:21.290Z,17.30
2023-01-29T14:16:01.370Z,17.32
2023-01-29T14:18:30.936Z,17.17
2023-01-29T14:21:22.218Z,17.41
2023-01-29T14:23:59.430Z,17.57
2023-01-29T14:26:46.241Z,17.52
2023-01-29T14:29:25.450Z,17.78
2023-01-29T14:32:01.018Z,17.85
2023-01-29T14:34:42.839Z,17.71
2023-01-29T14:37:17.112Z,17.91
2023-01-29T14:39:44.800Z,17.92
2023-01-29T14:42:39.093Z,17.91
2023-01-29T14:45:32.112Z,17.93
2023-01-29T14:48:20.256Z,17.99
2023-01-29T14:50:53.363Z,17.58
2023-01-29T14:53:49.310Z,17.95
2023-01-29T14:56:23.104Z,17.87
2023-01-29T14:58:56.259Z,17.88
2023-01-29T15:01:55.792Z,17.94
2023-01-29T15:04:31.114Z,17.50
2023-01-29T15:07:11.285Z,17.98
2023-01-29T15:10:22.502Z,18.00
2023-01-29T15:13:18.915Z,18.00
2023-01-29T15:15:50.732Z,17.93
2023-01-29T15:18:40.345Z,17.99
2023-01-29T15:21:14.754Z,18.04
2023-01-29T15:23:43.448Z,18.12
2023-01-29T15:26:17.623Z,18.19
2023-01-29T15:29:02.169Z,18.23
2023-01-29T15:31:32.471Z,18.08
2023-01-29T15:34:06.262Z,17.88
2023-01-29T15:36:34.284Z,18.40
2023-01-29T15:39:24.230Z,18.43
2023-01-29T15:42:11.570Z,17.65
2023-01-29T15:44:45.009Z,18.13
2023-01-29T15:47:14.765Z,18.47
2023-01-29T15:49:43.502Z,18.50
2023-01-29T15:52:21.629Z,18.40
2023-01-29T15:54:49.896Z,18.20
2023-01-29T15:57:26.470Z,18.51
2023-01-29T15:59:56.886Z,18.29
2023-01-29T16:02:38.567Z,18.53
2023-01-29T16:05:13.825Z,18.53
2023-01-29T16:07:43.180Z,18.01
2023-01-29T16:10:21.495Z,18.41
2023-01-29T16:12:52.260Z,18.50
2023-01-29T16:15:37.310Z,18.53
2023-01-29T16:18:22.344Z,18.32
2023-01-29T16:21:01.063Z,18.57
2023-01-29T16:23:33.014Z,18.56
2023-01-29T16:26:08.627Z,18.30
2023-01-29T16:28:43.736Z,18.57
2023-01-29T16:31:14.127Z,18.11
2023-01-29T16:33:45.551Z,17.88
2023-01-29T16:36:25.199Z,18.49
2023-01-29T16:39:00.795Z,18.25
2023-01-29T16:41:36.160Z,18.39
2023-01-29T16:44:16.253Z,18.37
2023-01-29T16:46:49.341Z,17.77
2023-01-29T16:49:26.225Z,18.27
2023-01-29T16:51:56.890Z,18.25
2023-01-29T16:54:26.649Z,18.29
2023-01-29T16:57:02.908Z,17.96
2023-01-29T16:59:38.602Z,18.26
2023-01-29T17:02:22.399Z,18.16
2023-01-29T17:04:54.222Z,18.10
2023-01-29T17:07:23.895Z,18.16
2023-01-29T17:09:56.193Z,18.16
2023-01-29T17:12:27.459Z,18.11
2023-01-29T17:15:25.720Z,18.09
2023-01-29T17:17:53.437Z,17.94
2023-01-29T17:20:21.833Z,17.95
2023-01-29T17:22:50.636Z,18.01
2023-01-29T17:25:19.348Z,17.94
2023-01-29T17:27:52.797Z,17.50
2023-01-29T17:30:28.647Z,17.83
2023-01-29T17:32:58.933Z,17.60
2023-01-29T17:35:26.832Z,17.73
2023-01-29T17:37:54.783Z,17.73
2023-01-29T17:40:33.703Z,17.72
2023-01-29T17:43:02.156Z,16.90
2023-01-29T17:45:31.643Z,17.72
2023-01-29T17:47:59.496Z,17.58
2023-01-29T17:50:30.633Z,17.60
2023-01-29T17:52:58.772Z,17.37
2023-01-29T17:55:26.547Z,17.33
2023-01-29T17:57:54.447Z,17.55
2023-01-29T18:00:24.533Z,17.39
2023-01-29T18:02:52.397Z,18.00
2023-01-29T18:05:20.640Z,17.45
2023-01-29T18:07:48.722Z,18.11
2023-01-29T18:10:19.441Z,17.75
2023-01-29T18:12:48.372Z,17.72
2023-01-29T18:15:17.359Z,17.95
2023-01-29T18:17:45.707Z,17.90
2023-01-29T18:20:18.984Z,17.83
2023-01-29T18:22:48.024Z,17.54
2023-01-29T18:25:16.695Z,17.53
2023-01-29T18:27:45.554Z,17.72
2023-01-29T18:30:14.174Z,17.68
2023-01-29T18:32:41.908Z,17.58
2023-01-29T18:35:09.938Z,17.56
2023-01-29T18:37:37.824Z,17.40
2023-01-29T18:40:07.317Z,17.55
2023-01-29T18:42:36.233Z,17.10
2023-01-29T18:45:04.250Z,17.01
2023-01-29T18:47:32.112Z,17.45
2023-01-29T18:50:00.706Z,17.13
2023-01-29T18:52:28.413Z,17.41
2023-01-29T18:54:56.139Z,16.98
2023-01-29T18:58:26.784Z,16.70
2023-01-29T19:00:12.421Z,17.39
2023-01-29T19:02:45.552Z,17.33
2023-01-29T19:05:13.746Z,17.32
2023-01-29T19:07:41.570Z,17.37
2023-01-29T19:10:12.921Z,17.39
2023-01-29T19:12:47.021Z,17.25
2023-01-29T19:15:17.457Z,17.14
2023-01-29T19:17:46.979Z,17.46
2023-01-29T19:20:15.913Z,16.83
2023-01-29T19:22:44.288Z,17.25
2023-01-29T19:25:12.885Z,17.39
2023-01-29T19:27:40.867Z,17.13
2023-01-29T19:30:10.515Z,17.48
2023-01-29T19:32:40.657Z,17.28
2023-01-29T19:35:14.072Z,17.50
2023-01-29T19:37:41.973Z,17.20
2023-01-29T19:40:10.364Z,16.85
2023-01-29T19:42:38.779Z,17.15
2023-01-29T19:45:07.305Z,17.55
2023-01-29T19:47:39.950Z,17.56
2023-01-29T19:50:11.297Z,17.40
2023-01-29T19:52:55.822Z,17.62
2023-01-29T19:55:23.487Z,17.19
2023-01-29T19:58:03.181Z,16.99
2023-01-29T20:00:32.492Z,17.26
2023-01-29T20:03:00.390Z,17.61
2023-01-29T20:05:30.496Z,17.19
2023-01-29T20:07:58.655Z,17.75
2023-01-29T20:10:27.918Z,17.80
2023-01-29T20:12:56.109Z,17.75
2023-01-29T20:15:23.935Z,17.79
2023-01-29T20:17:51.811Z,17.72
2023-01-29T20:20:20.166Z,17.70
2023-01-29T20:22:48.164Z,17.39
2023-01-29T20:25:16.683Z,17.57
2023-01-29T20:27:44.570Z,17.70
2023-01-29T20:30:12.767Z,17.71
2023-01-29T20:32:40.924Z,17.49
2023-01-29T20:35:09.566Z,16.64
2023-01-29T20:37:39.315Z,16.87
2023-01-29T20:40:09.791Z,17.03
2023-01-29T20:42:38.516Z,17.48
2023-01-29T20:45:07.131Z,17.32
2023-01-29T20:47:37.752Z,17.19
2023-01-29T20:50:08.803Z,17.50
2023-01-29T20:52:37.520Z,17.51
2023-01-29T20:55:08.959Z,17.47
2023-01-29T20:57:40.745Z,17.49
2023-01-29T21:00:09.468Z,17.49
2023-01-29T21:02:37.930Z,17.38
2023-01-29T21:05:06.969Z,17.47
2023-01-29T21:07:36.243Z,16.56
2023-01-29T21:10:05.475Z,17.34
2023-01-29T21:12:34.565Z,17.39
2023-01-29T21:15:02.493Z,17.33
2023-01-29T21:17:33.187Z,16.89
2023-01-29T21:20:04.451Z,16.94
2023-01-29T21:22:35.110Z,16.58
2023-01-29T21:25:04.857Z,16.91
2023-01-29T21:27:34.557Z,16.72
2023-01-29T21:30:06.000Z,16.96
2023-01-29T21:32:34.235Z,16.96
2023-01-29T21:35:01.950Z,17.04
2023-01-29T21:37:29.833Z,16.72
2023-01-29T21:39:57.679Z,16.77
2023-01-29T21:42:43.769Z,16.96
2023-01-29T21:45:11.583Z,16.88
2023-01-29T21:47:41.607Z,16.58
2023-01-29T21:50:09.987Z,16.68
2023-01-29T21:52:38.312Z,16.97
2023-01-29T21:55:06.720Z,17.13
2023-01-29T21:57:34.519Z,16.77
2023-01-29T22:00:03.153Z,17.13
2023-01-29T22:02:33.772Z,17.22
2023-01-29T22:05:20.074Z,16.80
2023-01-29T22:07:49.593Z,17.04
2023-01-29T22:10:19.897Z,16.80
2023-01-29T22:12:48.774Z,16.96
2023-01-29T22:15:21.079Z,16.89
2023-01-29T22:17:50.148Z,17.09
2023-01-29T22:20:19.302Z,17.12
2023-01-29T22:22:48.066Z,17.18
2023-01-29T22:25:20.170Z,16.91
2023-01-29T22:27:49.118Z,16.53
2023-01-29T22:30:18.459Z,16.60
2023-01-29T22:32:49.450Z,17.06
2023-01-29T22:35:18.619Z,17.09
2023-01-29T22:37:46.719Z,17.06
2023-01-29T22:40:15.130Z,17.01
2023-01-29T22:42:43.300Z,16.48
2023-01-29T22:45:12.628Z,16.65
2023-01-29T22:47:40.755Z,16.67
2023-01-29T22:50:09.141Z,17.06
2023-01-29T22:52:42.868Z,16.68
2023-01-29T22:55:12.557Z,16.61
2023-01-29T22:57:40.537Z,16.98
2023-01-29T23:00:11.202Z,16.68
2023-01-29T23:02:39.231Z,16.91
2023-01-29T23:05:07.902Z,16.73
2023-01-29T23:07:35.754Z,16.31
2023-01-29T23:10:04.488Z,16.74
2023-01-29T23:12:32.383Z,16.68
2023-01-29T23:15:00.164Z,16.65
2023-01-29T23:17:28.004Z,16.28
2023-01-29T23:19:55.891Z,16.91
2023-01-29T23:22:23.744Z,16.74
2023-01-29T23:24:52.238Z,16.83
2023-01-29T23:27:20.615Z,16.90
2023-01-29T23:29:49.442Z,16.55
2023-01-29T23:32:20.729Z,16.85
2023-01-29T23:34:49.530Z,16.82
2023-01-29T23:37:17.349Z,16.81
2023-01-29T23:39:45.262Z,16.37
2023-01-29T23:42:13.068Z,16.65
2023-01-29T23:44:42.620Z,16.73
2023-01-29T23:47:11.245Z,16.77
2023-01-29T23:49:39.415Z,16.11
2023-01-29T23:52:07.979Z,16.63
2023-01-29T23:54:35.697Z,16.72
2023-01-29T23:57:03.574Z,16.09
2023-01-29T23:59:31.451Z,16.40
